Time;durP1;ratioP1;P1;durP2;ratioP2;P2;SDS_P1;SDS_P2;PMS_P1;PMS_P2;Temp;Humidity;BMP_temperature;BMP_pressure;BME280_temperature;BME280_humidity;BME280_pressure;Samples;Min_cycle;Max_cycle;Signal;HPM_P1;HPM_P2
2021/08/15 00:01:46;;;;;;;8.23;7.30;;;;;;;;;;5089156;28;20201;-47
2021/08/15 00:04:12;;;;;;;9.68;7.00;;;;;;;;;;5075665;28;20577;-47
2021/08/15 00:06:38;;;;;;;7.57;6.78;;;;;;;;;;5084051;28;20227;-47
2021/08/15 00:09:04;;;;;;;8.18;7.10;;;;;;;;;;5076573;28;20179;-47
2021/08/15 00:11:30;;;;;;;8.07;6.60;;;;;;;;;;5075603;28;20249;-47
2021/08/15 00:13:56;;;;;;;9.40;7.13;;;;;;;;;;5090227;28;20260;-47
2021/08/15 00:16:22;;;;;;;8.65;6.38;;;;;;;;;;5089033;28;20177;-47
2021/08/15 00:18:48;;;;;;;7.03;6.32;;;;;;;;;;5075703;28;20193;-47
2021/08/15 00:21:14;;;;;;;6.63;6.03;;;;;;;;;;5080472;28;20187;-47
2021/08/15 00:23:40;;;;;;;6.85;6.15;;;;;;;;;;5086908;28;20186;-47
2021/08/15 00:26:07;;;;;;;7.22;6.53;;;;;;;;;;5091223;28;20192;-47
2021/08/15 00:28:33;;;;;;;8.02;6.75;;;;;;;;;;5094895;28;20181;-47
2021/08/15 00:30:59;;;;;;;7.45;6.75;;;;;;;;;;5091053;28;20181;-47
2021/08/15 00:33:25;;;;;;;7.32;6.60;;;;;;;;;;5079377;28;20197;-47
2021/08/15 00:35:50;;;;;;;7.90;6.88;;;;;;;;;;5074457;28;20312;-47
2021/08/15 00:38:16;;;;;;;7.38;6.35;;;;;;;;;;5089401;28;20222;-47
2021/08/15 00:40:42;;;;;;;7.78;6.93;;;;;;;;;;5095155;28;20431;-47
2021/08/15 00:43:09;;;;;;;7.65;6.90;;;;;;;;;;5076185;28;20281;-47
2021/08/15 00:45:35;;;;;;;7.40;6.60;;;;;;;;;;5078803;28;20210;-47
2021/08/15 00:48:10;;;;;;;7.40;6.22;;;;;;;;;;5086781;28;20193;-47
2021/08/15 00:50:37;;;;;;;7.75;6.60;;;;;;;;;;5094585;28;20176;-47
2021/08/15 00:53:04;;;;;;;9.45;7.32;;;;;;;;;;5083736;28;20189;-47
2021/08/15 00:55:30;;;;;;;6.85;6.15;;;;;;;;;;5094941;28;20181;-46
2021/08/15 00:57:56;;;;;;;7.40;6.30;;;;;;;;;;5094310;28;20176;-47
2021/08/15 01:00:22;;;;;;;7.55;6.30;;;;;;;;;;5090475;28;20182;-47
2021/08/15 01:02:48;;;;;;;8.43;6.45;;;;;;;;;;5083558;28;20491;-47
2021/08/15 01:05:15;;;;;;;7.65;6.57;;;;;;;;;;5074553;28;20233;-47
2021/08/15 01:07:42;;;;;;;7.20;6.50;;;;;;;;;;5081951;28;20178;-47
2021/08/15 01:10:09;;;;;;;6.93;6.20;;;;;;;;;;5094690;28;20172;-47
2021/08/15 01:12:35;;;;;;;7.22;6.50;;;;;;;;;;5092611;28;20265;-47
2021/08/15 01:15:01;;;;;;;7.20;6.50;;;;;;;;;;5082389;28;20866;-47
2021/08/15 01:17:29;;;;;;;7.38;6.05;;;;;;;;;;5084754;28;20193;-47
2021/08/15 01:19:55;;;;;;;6.93;6.22;;;;;;;;;;5078034;28;20177;-47
2021/08/15 01:22:23;;;;;;;7.32;6.47;;;;;;;;;;5093437;28;20224;-47
2021/08/15 01:24:50;;;;;;;7.28;6.25;;;;;;;;;;5093668;28;20715;-47
2021/08/15 01:27:16;;;;;;;7.82;6.38;;;;;;;;;;5093667;28;20209;-47
2021/08/15 01:29:44;;;;;;;7.15;6.00;;;;;;;;;;5092929;28;20200;-47
2021/08/15 01:32:10;;;;;;;7.88;6.00;;;;;;;;;;5065225;28;20917;-47
2021/08/15 01:34:36;;;;;;;7.60;5.82;;;;;;;;;;5094498;28;20249;-47
2021/08/15 01:37:02;;;;;;;6.82;6.13;;;;;;;;;;5081653;28;20265;-47
2021/08/15 01:39:28;;;;;;;8.05;6.18;;;;;;;;;;5092488;28;20243;-46
2021/08/15 01:41:54;;;;;;;8.13;6.80;;;;;;;;;;5081728;28;20178;-46
2021/08/15 01:44:20;;;;;;;6.80;5.78;;;;;;;;;;5094291;28;20262;-47
2021/08/15 01:46:46;;;;;;;6.93;5.80;;;;;;;;;;5080953;28;20214;-46
2021/08/15 01:49:12;;;;;;;7.15;6.15;;;;;;;;;;5080322;28;20174;-47
2021/08/15 01:51:38;;;;;;;7.00;6.00;;;;;;;;;;5082926;28;20617;-47
2021/08/15 01:54:04;;;;;;;7.43;5.75;;;;;;;;;;5094276;28;20186;-46
2021/08/15 01:56:30;;;;;;;7.95;6.00;;;;;;;;;;5075953;28;20212;-46
2021/08/15 01:58:57;;;;;;;6.82;5.85;;;;;;;;;;5092923;28;20186;-46
2021/08/15 02:01:23;;;;;;;7.03;6.28;;;;;;;;;;5064492;28;20202;-47
2021/08/15 02:03:49;;;;;;;6.78;5.90;;;;;;;;;;5092946;28;20292;-47
2021/08/15 02:06:17;;;;;;;6.05;5.45;;;;;;;;;;5094080;28;20197;-47
2021/08/15 02:08:43;;;;;;;8.23;6.53;;;;;;;;;;5093252;28;20699;-46
2021/08/15 02:11:09;;;;;;;6.53;5.50;;;;;;;;;;5083386;28;20186;-47
2021/08/15 02:13:35;;;;;;;6.53;5.70;;;;;;;;;;5077668;28;20178;-46
2021/08/15 02:16:01;;;;;;;11.00;6.03;;;;;;;;;;5085224;28;20236;-47
2021/08/15 02:18:28;;;;;;;7.25;6.15;;;;;;;;;;5089376;28;20226;-46
2021/08/15 02:20:54;;;;;;;6.18;5.57;;;;;;;;;;5091469;28;20249;-46
2021/08/15 02:23:20;;;;;;;8.07;5.97;;;;;;;;;;5074950;28;20530;-46
2021/08/15 02:25:46;;;;;;;7.40;6.13;;;;;;;;;;5077215;28;20234;-46
2021/08/15 02:28:12;;;;;;;7.05;5.88;;;;;;;;;;5089897;28;20178;-46
2021/08/15 02:30:38;;;;;;;6.80;5.38;;;;;;;;;;5093345;28;21044;-46
2021/08/15 02:33:04;;;;;;;6.38;5.63;;;;;;;;;;5084943;28;20206;-46
2021/08/15 02:35:31;;;;;;;6.45;5.85;;;;;;;;;;5077142;28;20620;-47
2021/08/15 02:37:57;;;;;;;6.50;5.90;;;;;;;;;;5096502;28;20549;-47
2021/08/15 02:40:23;;;;;;;6.82;5.47;;;;;;;;;;5093060;28;20263;-46
2021/08/15 02:42:50;;;;;;;6.43;5.80;;;;;;;;;;5088268;28;20179;-47
2021/08/15 02:45:17;;;;;;;5.93;5.25;;;;;;;;;;5078838;28;20244;-46
2021/08/15 02:47:43;;;;;;;6.65;5.68;;;;;;;;;;5085795;28;20180;-47
2021/08/15 02:50:10;;;;;;;7.50;6.10;;;;;;;;;;5076964;28;20181;-47
2021/08/15 02:52:36;;;;;;;6.05;5.47;;;;;;;;;;5093883;28;20209;-46
2021/08/15 02:55:03;;;;;;;6.43;5.80;;;;;;;;;;5095687;28;20186;-47
2021/08/15 02:57:29;;;;;;;5.88;5.20;;;;;;;;;;5063781;28;20308;-46
2021/08/15 02:59:55;;;;;;;7.00;5.60;;;;;;;;;;5078318;28;20239;-46
2021/08/15 03:02:21;;;;;;;6.00;5.38;;;;;;;;;;5084704;28;20302;-46
2021/08/15 03:04:48;;;;;;;6.50;5.80;;;;;;;;;;5096953;28;20227;-47
2021/08/15 03:07:15;;;;;;;7.53;5.65;;;;;;;;;;5082817;28;20558;-47
2021/08/15 03:09:41;;;;;;;7.85;5.65;;;;;;;;;;5076604;28;20179;-47
2021/08/15 03:12:07;;;;;;;6.90;5.38;;;;;;;;;;5089154;28;20182;-47
2021/08/15 03:14:33;;;;;;;6.13;5.28;;;;;;;;;;5096456;28;20256;-47
2021/08/15 03:16:59;;;;;;;8.38;5.18;;;;;;;;;;5082636;28;20265;-47
2021/08/15 03:19:25;;;;;;;5.85;5.25;;;;;;;;;;5092785;28;20815;-47
2021/08/15 03:21:51;;;;;;;6.13;5.20;;;;;;;;;;5085559;28;20239;-47
2021/08/15 03:24:17;;;;;;;6.35;5.55;;;;;;;;;;5095705;28;20208;-47
2021/08/15 03:26:46;;;;;;;6.38;5.03;;;;;;;;;;5096023;28;20467;-47
2021/08/15 03:29:16;;;;;;;7.05;5.53;;;;;;;;;;5096093;28;20253;-47
2021/08/15 03:31:43;;;;;;;5.30;4.80;;;;;;;;;;5090438;28;20182;-47
2021/08/15 03:34:09;;;;;;;5.70;5.15;;;;;;;;;;5076122;28;20170;-47
2021/08/15 03:36:35;;;;;;;6.35;5.50;;;;;;;;;;5084370;28;20277;-47
2021/08/15 03:39:01;;;;;;;6.63;5.57;;;;;;;;;;5094852;28;20184;-47
2021/08/15 03:41:27;;;;;;;6.15;5.13;;;;;;;;;;5092009;28;20171;-46
2021/08/15 03:43:53;;;;;;;7.00;5.15;;;;;;;;;;5075916;28;20198;-47
2021/08/15 03:46:19;;;;;;;5.70;5.10;;;;;;;;;;5084690;28;20235;-47
2021/08/15 03:48:45;;;;;;;5.18;4.68;;;;;;;;;;5079478;28;20178;-47
2021/08/15 03:51:11;;;;;;;6.18;5.05;;;;;;;;;;5080747;28;20218;-47
2021/08/15 03:53:37;;;;;;;6.30;5.32;;;;;;;;;;5094949;28;20238;-47
2021/08/15 03:56:03;;;;;;;6.18;5.30;;;;;;;;;;5095737;28;20268;-46
2021/08/15 03:58:29;;;;;;;5.60;5.10;;;;;;;;;;5088996;28;20189;-46
2021/08/15 04:00:56;;;;;;;5.78;5.18;;;;;;;;;;5082837;28;20227;-46
2021/08/15 04:03:22;;;;;;;6.60;4.70;;;;;;;;;;5080386;28;20229;-46
2021/08/15 04:05:48;;;;;;;5.70;5.20;;;;;;;;;;5075407;28;20228;-47
2021/08/15 04:08:14;;;;;;;5.60;5.10;;;;;;;;;;5075154;28;20181;-46
2021/08/15 04:10:40;;;;;;;5.10;4.57;;;;;;;;;;5075477;28;20175;-47
2021/08/15 04:13:06;;;;;;;5.55;4.95;;;;;;;;;;5075426;28;20257;-46
2021/08/15 04:15:32;;;;;;;5.97;5.28;;;;;;;;;;5079098;28;20269;-47
2021/08/15 04:17:58;;;;;;;5.88;5.22;;;;;;;;;;5086700;28;20192;-46
2021/08/15 04:20:24;;;;;;;5.32;4.70;;;;;;;;;;5090170;28;20170;-46
2021/08/15 04:22:50;;;;;;;5.55;4.95;;;;;;;;;;5093580;28;20243;-47
2021/08/15 04:25:16;;;;;;;5.78;5.18;;;;;;;;;;5095447;28;20580;-46
2021/08/15 04:27:43;;;;;;;5.15;4.65;;;;;;;;;;5094073;28;20185;-47
2021/08/15 04:30:10;;;;;;;6.57;4.90;;;;;;;;;;5093737;28;20169;-47
2021/08/15 04:32:37;;;;;;;4.90;4.47;;;;;;;;;;5083921;28;20193;-46
2021/08/15 04:35:03;;;;;;;7.28;4.60;;;;;;;;;;5090656;28;20182;-47
2021/08/15 04:37:30;;;;;;;5.03;4.63;;;;;;;;;;5089916;28;20182;-46
2021/08/15 04:39:56;;;;;;;5.82;5.32;;;;;;;;;;5095167;28;20174;-47
2021/08/15 04:42:22;;;;;;;6.03;4.85;;;;;;;;;;5093007;28;20234;-46
2021/08/15 04:44:48;;;;;;;5.65;4.95;;;;;;;;;;5093438;28;20205;-46
2021/08/15 04:47:14;;;;;;;6.28;5.03;;;;;;;;;;5082500;28;20177;-47
2021/08/15 04:49:40;;;;;;;5.53;5.00;;;;;;;;;;5081440;28;20550;-47
2021/08/15 04:52:06;;;;;;;5.15;4.63;;;;;;;;;;5086984;28;20215;-46
2021/08/15 04:54:32;;;;;;;5.55;4.80;;;;;;;;;;5094306;28;20193;-46
2021/08/15 04:56:59;;;;;;;5.22;4.72;;;;;;;;;;5094230;28;20200;-46
2021/08/15 04:59:25;;;;;;;5.40;4.88;;;;;;;;;;5093983;28;20228;-46
2021/08/15 05:01:51;;;;;;;6.75;4.95;;;;;;;;;;5080565;28;20469;-47
2021/08/15 05:04:18;;;;;;;5.57;5.00;;;;;;;;;;5093680;28;20205;-46
2021/08/15 05:06:45;;;;;;;5.95;5.22;;;;;;;;;;5089815;28;20240;-46
2021/08/15 05:09:11;;;;;;;7.50;5.90;;;;;;;;;;5094250;28;20178;-46
2021/08/15 05:11:38;;;;;;;6.13;5.20;;;;;;;;;;5094266;28;20182;-46
2021/08/15 05:14:05;;;;;;;8.60;6.07;;;;;;;;;;5093319;28;20192;-46
2021/08/15 05:16:31;;;;;;;8.25;5.88;;;;;;;;;;5089787;28;20174;-46
2021/08/15 05:18:57;;;;;;;8.07;6.15;;;;;;;;;;5074001;28;20247;-46
2021/08/15 05:21:23;;;;;;;7.50;6.50;;;;;;;;;;5080717;28;20198;-46
2021/08/15 05:23:49;;;;;;;7.10;6.07;;;;;;;;;;5094306;28;20227;-46
2021/08/15 05:26:15;;;;;;;9.25;7.07;;;;;;;;;;5089662;28;20220;-46
2021/08/15 05:28:41;;;;;;;7.88;6.88;;;;;;;;;;5094120;28;20194;-46
2021/08/15 05:31:07;;;;;;;11.20;6.85;;;;;;;;;;5090013;28;20182;-46
2021/08/15 05:33:33;;;;;;;8.75;7.10;;;;;;;;;;5077655;28;20179;-46
2021/08/15 05:35:59;;;;;;;9.85;6.93;;;;;;;;;;5073763;28;20174;-46
2021/08/15 05:38:25;;;;;;;12.02;6.78;;;;;;;;;;5073769;28;20445;-46
2021/08/15 05:40:51;;;;;;;8.77;6.35;;;;;;;;;;5086142;28;20220;-46
2021/08/15 05:43:17;;;;;;;8.15;6.07;;;;;;;;;;5076986;28;20178;-46
2021/08/15 05:45:43;;;;;;;9.48;6.53;;;;;;;;;;5089750;28;20209;-46
2021/08/15 05:48:09;;;;;;;8.57;6.15;;;;;;;;;;5087246;28;20558;-46
2021/08/15 05:50:35;;;;;;;7.15;6.30;;;;;;;;;;5074067;28;20210;-46
2021/08/15 05:53:01;;;;;;;7.57;5.95;;;;;;;;;;5074113;28;20181;-46
2021/08/15 05:55:27;;;;;;;8.40;5.47;;;;;;;;;;5074053;28;20174;-46
2021/08/15 05:57:53;;;;;;;11.38;6.20;;;;;;;;;;5094449;28;20186;-46
2021/08/15 06:00:19;;;;;;;9.25;5.93;;;;;;;;;;5094217;28;20186;-46
2021/08/15 06:02:45;;;;;;;10.77;6.25;;;;;;;;;;5087609;28;20201;-46
2021/08/15 06:05:12;;;;;;;8.77;6.40;;;;;;;;;;5097903;28;20227;-46
2021/08/15 06:07:38;;;;;;;9.27;6.05;;;;;;;;;;5080489;28;20203;-46
2021/08/15 06:10:04;;;;;;;10.45;6.22;;;;;;;;;;5077739;28;20209;-46
2021/08/15 06:12:30;;;;;;;8.65;6.18;;;;;;;;;;5077733;28;20597;-46
2021/08/15 06:14:56;;;;;;;7.40;5.50;;;;;;;;;;5078693;28;20530;-46
2021/08/15 06:17:23;;;;;;;10.32;6.03;;;;;;;;;;5087876;28;20273;-46
2021/08/15 06:19:49;;;;;;;11.70;6.38;;;;;;;;;;5077498;28;20171;-46
2021/08/15 06:22:15;;;;;;;8.68;5.97;;;;;;;;;;5079500;28;20206;-46
2021/08/15 06:24:41;;;;;;;7.50;6.07;;;;;;;;;;5094929;28;20236;-46
2021/08/15 06:27:07;;;;;;;9.13;5.85;;;;;;;;;;5083481;28;20185;-46
2021/08/15 06:29:33;;;;;;;7.82;6.20;;;;;;;;;;5097422;28;20166;-46
2021/08/15 06:31:59;;;;;;;8.55;5.85;;;;;;;;;;5089359;28;20183;-46
2021/08/15 06:34:25;;;;;;;10.18;6.57;;;;;;;;;;5077202;28;20250;-46
2021/08/15 06:36:51;;;;;;;7.00;5.38;;;;;;;;;;5077141;28;20538;-46
2021/08/15 06:39:16;;;;;;;8.77;5.47;;;;;;;;;;5076595;28;20181;-46
2021/08/15 06:41:42;;;;;;;9.75;5.97;;;;;;;;;;5083491;28;20483;-46
2021/08/15 06:44:09;;;;;;;9.07;6.57;;;;;;;;;;5096626;28;20208;-46
2021/08/15 06:46:35;;;;;;;8.18;5.93;;;;;;;;;;5083833;28;20592;-46
2021/08/15 06:49:01;;;;;;;10.52;6.22;;;;;;;;;;5096726;28;20174;-46
2021/08/15 06:51:27;;;;;;;7.68;5.32;;;;;;;;;;5090145;28;20179;-46
2021/08/15 06:53:53;;;;;;;7.32;5.22;;;;;;;;;;5076930;28;20163;-46
2021/08/15 06:56:19;;;;;;;8.02;5.28;;;;;;;;;;5077234;28;20219;-46
2021/08/15 06:58:45;;;;;;;8.07;5.57;;;;;;;;;;5076955;28;20242;-46
2021/08/15 07:01:12;;;;;;;8.77;6.07;;;;;;;;;;5085651;28;20194;-46
2021/08/15 07:03:38;;;;;;;7.80;5.40;;;;;;;;;;5079268;28;20619;-46
2021/08/15 07:06:04;;;;;;;7.90;5.60;;;;;;;;;;5076651;28;20190;-46
2021/08/15 07:08:30;;;;;;;9.02;5.32;;;;;;;;;;5075558;28;20167;-46
2021/08/15 07:10:56;;;;;;;7.43;5.38;;;;;;;;;;5080017;28;20192;-46
2021/08/15 07:13:25;;;;;;;9.00;5.20;;;;;;;;;;5095705;28;20557;-46
2021/08/15 07:15:51;;;;;;;6.05;4.68;;;;;;;;;;5082715;28;20185;-46
2021/08/15 07:18:18;;;;;;;6.93;5.30;;;;;;;;;;5081644;28;20205;-46
2021/08/15 07:20:44;;;;;;;7.15;5.28;;;;;;;;;;5076383;28;20530;-46
2021/08/15 07:23:10;;;;;;;6.82;4.88;;;;;;;;;;5076444;28;20166;-46
2021/08/15 07:25:36;;;;;;;6.70;5.47;;;;;;;;;;5076218;28;20198;-46
2021/08/15 07:28:02;;;;;;;7.78;5.03;;;;;;;;;;5075964;28;20167;-46
2021/08/15 07:30:28;;;;;;;6.78;5.45;;;;;;;;;;5090345;28;20292;-46
2021/08/15 07:33:04;;;;;;;5.20;4.70;;;;;;;;;;5087703;28;20174;-46
2021/08/15 07:35:31;;;;;;;7.90;5.03;;;;;;;;;;5096458;28;20436;-46
2021/08/15 07:37:57;;;;;;;7.35;4.75;;;;;;;;;;5076198;28;20174;-46
2021/08/15 07:40:23;;;;;;;5.75;4.72;;;;;;;;;;5076147;28;20166;-46
2021/08/15 07:42:53;;;;;;;6.18;4.60;;;;;;;;;;5091070;28;20655;-46
2021/08/15 07:45:20;;;;;;;6.38;4.82;;;;;;;;;;5093618;28;20194;-46
2021/08/15 07:47:46;;;;;;;6.85;4.63;;;;;;;;;;5085300;28;20260;-46
2021/08/15 07:50:12;;;;;;;7.53;4.43;;;;;;;;;;5096099;28;20534;-46
2021/08/15 07:52:38;;;;;;;8.52;4.63;;;;;;;;;;5078988;28;20572;-46
2021/08/15 07:55:05;;;;;;;7.25;5.00;;;;;;;;;;5075864;28;20174;-45
2021/08/15 07:57:31;;;;;;;6.07;4.60;;;;;;;;;;5075180;28;20216;-46
2021/08/15 07:59:58;;;;;;;7.80;4.78;;;;;;;;;;5076583;28;20170;-46
2021/08/15 08:02:24;;;;;;;6.93;4.25;;;;;;;;;;5086499;28;20268;-46
2021/08/15 08:04:51;;;;;;;8.23;4.53;;;;;;;;;;5075451;28;20193;-46
2021/08/15 08:07:19;;;;;;;5.65;4.05;;;;;;;;;;5075054;28;20194;-46
2021/08/15 08:09:46;;;;;;;6.40;4.93;;;;;;;;;;5075156;28;20170;-46
2021/08/15 08:12:12;;;;;;;9.00;4.43;;;;;;;;;;5088949;28;20410;-46
2021/08/15 08:14:38;;;;;;;6.93;4.35;;;;;;;;;;5075620;28;20546;-46
2021/08/15 08:17:04;;;;;;;4.70;4.20;;;;;;;;;;5086915;28;20197;-46
2021/08/15 08:19:30;;;;;;;5.85;4.38;;;;;;;;;;5075176;28;20182;-46
2021/08/15 08:21:56;;;;;;;6.18;4.20;;;;;;;;;;5074170;28;20183;-46
2021/08/15 08:24:22;;;;;;;6.15;4.28;;;;;;;;;;5074995;28;20194;-46
2021/08/15 08:26:48;;;;;;;7.00;4.07;;;;;;;;;;5075003;28;20163;-46
2021/08/15 08:29:14;;;;;;;5.43;4.47;;;;;;;;;;5094744;28;20405;-46
2021/08/15 08:31:40;;;;;;;6.95;4.60;;;;;;;;;;5082330;28;20484;-46
2021/08/15 08:34:06;;;;;;;4.72;4.20;;;;;;;;;;5095517;28;20166;-46
2021/08/15 08:36:32;;;;;;;5.88;4.25;;;;;;;;;;5087612;28;20202;-46
2021/08/15 08:38:58;;;;;;;6.10;4.50;;;;;;;;;;5074425;28;20521;-46
2021/08/15 08:41:24;;;;;;;4.53;3.80;;;;;;;;;;5078611;28;20211;-46
2021/08/15 08:43:50;;;;;;;5.30;3.75;;;;;;;;;;5095060;28;20176;-46
2021/08/15 08:46:18;;;;;;;6.10;4.28;;;;;;;;;;5089933;28;20442;-46
2021/08/15 08:48:45;;;;;;;4.88;4.10;;;;;;;;;;5076442;28;20243;-46
2021/08/15 08:51:11;;;;;;;4.57;4.18;;;;;;;;;;5074975;28;20177;-46
2021/08/15 08:53:38;;;;;;;6.72;4.40;;;;;;;;;;5074518;28;20162;-46
2021/08/15 08:56:04;;;;;;;5.18;4.68;;;;;;;;;;5078789;28;20186;-46
2021/08/15 08:58:30;;;;;;;5.43;4.68;;;;;;;;;;5094541;28;20174;-46
2021/08/15 09:00:56;;;;;;;4.97;4.13;;;;;;;;;;5087092;28;20206;-46
2021/08/15 09:03:22;;;;;;;6.10;4.57;;;;;;;;;;5089916;28;20476;-46
2021/08/15 09:05:55;;;;;;;5.38;4.07;;;;;;;;;;5093229;28;20194;-46
2021/08/15 09:08:26;;;;;;;5.00;4.28;;;;;;;;;;5073830;28;20216;-46
2021/08/15 09:10:52;;;;;;;4.93;4.32;;;;;;;;;;5076996;28;20183;-46
2021/08/15 09:13:24;;;;;;;7.80;4.45;;;;;;;;;;5094978;28;20165;-46
2021/08/15 09:15:57;;;;;;;4.30;3.90;;;;;;;;;;5087742;28;20447;-46
2021/08/15 09:18:27;;;;;;;5.95;4.15;;;;;;;;;;5089409;28;20176;-46
2021/08/15 09:20:53;;;;;;;7.30;3.90;;;;;;;;;;5092149;28;20437;-46
2021/08/15 09:23:28;;;;;;;4.45;4.00;;;;;;;;;;5074721;28;20213;-46
2021/08/15 09:26:14;;;;;;;6.35;4.10;;;;;;;;;;5074689;28;20234;-46
2021/08/15 09:28:41;;;;;;;7.15;4.85;;;;;;;;;;5073974;28;20202;-46
2021/08/15 09:31:19;;;;;;;6.47;4.45;;;;;;;;;;5082869;28;20283;-46
2021/08/15 09:33:45;;;;;;;5.88;4.43;;;;;;;;;;5080016;28;20588;-46
2021/08/15 09:36:11;;;;;;;4.20;3.80;;;;;;;;;;5082308;28;20166;-46
2021/08/15 09:38:45;;;;;;;5.85;4.10;;;;;;;;;;5078026;28;20207;-46
2021/08/15 09:41:24;;;;;;;6.28;4.55;;;;;;;;;;5080317;28;20193;-46
2021/08/15 09:43:50;;;;;;;8.65;4.20;;;;;;;;;;5098305;28;20172;-47
2021/08/15 09:46:16;;;;;;;7.20;4.07;;;;;;;;;;5094426;28;20177;-46
2021/08/15 09:48:42;;;;;;;4.20;3.80;;;;;;;;;;5080242;28;20210;-46
2021/08/15 09:51:15;;;;;;;4.25;3.85;;;;;;;;;;5078126;28;20268;-46
2021/08/15 09:53:43;;;;;;;4.20;3.80;;;;;;;;;;5078204;28;20175;-46
2021/08/15 09:56:09;;;;;;;4.10;3.70;;;;;;;;;;5081498;28;20180;-46
2021/08/15 09:58:36;;;;;;;5.55;3.70;;;;;;;;;;5098021;28;20181;-46
2021/08/15 10:01:04;;;;;;;4.97;3.75;;;;;;;;;;5088334;28;20201;-46
2021/08/15 10:03:30;;;;;;;7.03;3.80;;;;;;;;;;5082356;28;20201;-46
2021/08/15 10:05:57;;;;;;;5.22;3.85;;;;;;;;;;5077414;28;20206;-46
2021/08/15 10:08:23;;;;;;;4.88;3.90;;;;;;;;;;5077333;28;20242;-45
2021/08/15 10:10:49;;;;;;;4.18;3.22;;;;;;;;;;5077604;28;20224;-46
2021/08/15 10:13:17;;;;;;;4.75;3.83;;;;;;;;;;5077512;28;20166;-46
2021/08/15 10:15:44;;;;;;;3.95;3.25;;;;;;;;;;5082806;28;20173;-46
2021/08/15 10:18:11;;;;;;;4.35;3.55;;;;;;;;;;5084118;28;20202;-46
2021/08/15 10:20:38;;;;;;;4.07;3.70;;;;;;;;;;5077852;28;20183;-46
2021/08/15 10:23:13;;;;;;;6.00;3.78;;;;;;;;;;5077653;28;20566;-46
2021/08/15 10:25:43;;;;;;;4.55;3.47;;;;;;;;;;5077630;28;20268;-46
2021/08/15 10:28:10;;;;;;;4.18;3.78;;;;;;;;;;5084641;28;20182;-46
2021/08/15 10:30:37;;;;;;;4.70;3.45;;;;;;;;;;5093170;28;20174;-46
2021/08/15 10:33:03;;;;;;;4.43;3.97;;;;;;;;;;5089950;28;20170;-47
2021/08/15 10:35:29;;;;;;;4.30;3.40;;;;;;;;;;5097728;28;20560;-46
2021/08/15 10:37:56;;;;;;;5.32;3.70;;;;;;;;;;5077421;28;20634;-46
2021/08/15 10:40:41;;;;;;;4.40;3.70;;;;;;;;;;5077275;28;20458;-46
2021/08/15 10:43:08;;;;;;;3.83;3.40;;;;;;;;;;5094947;28;20181;-46
2021/08/15 10:45:34;;;;;;;5.95;3.67;;;;;;;;;;5091975;28;20536;-46
2021/08/15 10:48:10;;;;;;;5.05;4.00;;;;;;;;;;5088509;28;20226;-46
2021/08/15 10:50:46;;;;;;;4.68;3.45;;;;;;;;;;5097430;28;20169;-46
2021/08/15 10:53:30;;;;;;;4.22;3.30;;;;;;;;;;5077045;28;20163;-46
2021/08/15 10:55:57;;;;;;;3.80;3.38;;;;;;;;;;5083320;28;20186;-46
2021/08/15 10:58:39;;;;;;;3.70;3.33;;;;;;;;;;5076434;28;20427;-46
2021/08/15 11:01:06;;;;;;;4.50;3.38;;;;;;;;;;5084748;28;20288;-46
2021/08/15 11:03:32;;;;;;;3.33;3.03;;;;;;;;;;5080851;28;20250;-46
2021/08/15 11:05:59;;;;;;;4.53;3.50;;;;;;;;;;5076494;28;20256;-46
2021/08/15 11:08:34;;;;;;;3.38;2.90;;;;;;;;;;5076048;28;20182;-46
2021/08/15 11:11:07;;;;;;;3.65;3.25;;;;;;;;;;5080473;28;20177;-46
2021/08/15 11:13:34;;;;;;;4.93;3.20;;;;;;;;;;5096934;28;20245;-47
2021/08/15 11:16:39;;;;;;;4.53;3.50;;;;;;;;;;5088701;28;20175;-47
2021/08/15 11:19:08;;;;;;;4.55;3.28;;;;;;;;;;5014449;28;20567;-46
2021/08/15 11:21:52;;;;;;;5.70;3.42;;;;;;;;;;5007241;28;20235;-46
2021/08/15 11:24:22;;;;;;;3.95;2.88;;;;;;;;;;5045486;28;20210;-46
2021/08/15 11:26:48;;;;;;;2.83;2.60;;;;;;;;;;5086338;28;20186;-47
2021/08/15 11:29:19;;;;;;;4.43;2.58;;;;;;;;;;5096138;28;20166;-46
2021/08/15 11:31:46;;;;;;;2.95;2.65;;;;;;;;;;5083414;28;20393;-46
2021/08/15 11:34:12;;;;;;;2.72;2.50;;;;;;;;;;5095982;28;20192;-46
2021/08/15 11:36:38;;;;;;;3.53;2.53;;;;;;;;;;5087966;28;20171;-46
2021/08/15 11:39:07;;;;;;;3.08;2.47;;;;;;;;;;5075768;28;20167;-46
2021/08/15 11:41:36;;;;;;;3.58;2.13;;;;;;;;;;5081024;28;20204;-47
2021/08/15 11:44:03;;;;;;;2.28;2.08;;;;;;;;;;5095951;28;20180;-46
2021/08/15 11:46:29;;;;;;;2.90;2.40;;;;;;;;;;5091495;28;20451;-47
2021/08/15 11:48:55;;;;;;;2.70;2.50;;;;;;;;;;5076248;28;20213;-47
2021/08/15 11:51:21;;;;;;;2.75;2.10;;;;;;;;;;5076032;28;20202;-47
2021/08/15 11:53:47;;;;;;;2.50;2.20;;;;;;;;;;5075864;28;20213;-47
2021/08/15 11:56:21;;;;;;;2.10;1.90;;;;;;;;;;5079531;28;20564;-46
2021/08/15 11:58:49;;;;;;;3.22;1.70;;;;;;;;;;5095674;28;20447;-46
2021/08/15 12:01:16;;;;;;;2.20;2.00;;;;;;;;;;5085707;28;20202;-46
2021/08/15 12:03:42;;;;;;;3.58;2.00;;;;;;;;;;5093199;28;20254;-47
2021/08/15 12:06:09;;;;;;;2.35;2.15;;;;;;;;;;5091863;28;20202;-46
2021/08/15 12:08:36;;;;;;;2.45;1.98;;;;;;;;;;5074954;28;20171;-46
2021/08/15 12:11:03;;;;;;;2.05;1.83;;;;;;;;;;5076452;28;20866;-47
2021/08/15 12:13:32;;;;;;;2.28;2.05;;;;;;;;;;5075289;28;20249;-46
2021/08/15 12:15:58;;;;;;;2.45;1.70;;;;;;;;;;5082259;28;20178;-47
2021/08/15 12:18:34;;;;;;;2.33;2.10;;;;;;;;;;5080032;28;20231;-47
2021/08/15 12:21:01;;;;;;;2.17;1.98;;;;;;;;;;5075606;28;20174;-46
2021/08/15 12:23:28;;;;;;;2.20;2.00;;;;;;;;;;5075410;28;20217;-46
2021/08/15 12:26:05;;;;;;;1.77;1.67;;;;;;;;;;5088855;28;20478;-46
2021/08/15 12:28:32;;;;;;;2.70;2.03;;;;;;;;;;5095201;28;20204;-46
2021/08/15 12:31:19;;;;;;;1.63;1.50;;;;;;;;;;5089092;28;20718;-47
2021/08/15 12:33:45;;;;;;;1.73;1.63;;;;;;;;;;5082200;28;20171;-46
2021/08/15 12:36:18;;;;;;;1.88;1.77;;;;;;;;;;5078357;28;20569;-47
2021/08/15 12:38:44;;;;;;;2.08;1.60;;;;;;;;;;5075394;28;20193;-47
2021/08/15 12:41:30;;;;;;;4.05;1.50;;;;;;;;;;5077107;28;20193;-47
2021/08/15 12:44:12;;;;;;;1.55;1.45;;;;;;;;;;5081082;28;20192;-47
2021/08/15 12:46:39;;;;;;;1.58;1.40;;;;;;;;;;5090946;28;20448;-47
2021/08/15 12:49:18;;;;;;;1.38;1.27;;;;;;;;;;5074221;28;20179;-47
2021/08/15 12:51:44;;;;;;;1.58;1.48;;;;;;;;;;5074849;28;20196;-46
2021/08/15 12:54:10;;;;;;;3.80;1.83;;;;;;;;;;5074934;28;20448;-47
2021/08/15 12:56:36;;;;;;;1.50;1.23;;;;;;;;;;5080131;28;20261;-47
2021/08/15 12:59:02;;;;;;;2.70;1.38;;;;;;;;;;5094311;28;20253;-47
2021/08/15 13:01:28;;;;;;;1.60;1.50;;;;;;;;;;5082919;28;20198;-47
2021/08/15 13:03:54;;;;;;;1.75;1.38;;;;;;;;;;5093700;28;20281;-47
2021/08/15 13:06:25;;;;;;;1.75;1.35;;;;;;;;;;5089097;28;20193;-47
2021/08/15 13:08:51;;;;;;;1.77;1.50;;;;;;;;;;5074144;28;20174;-47
2021/08/15 13:11:17;;;;;;;3.53;1.63;;;;;;;;;;5074835;28;20177;-47
2021/08/15 13:13:43;;;;;;;2.03;1.83;;;;;;;;;;5074927;28;20178;-47
2021/08/15 13:16:09;;;;;;;1.83;1.52;;;;;;;;;;5086565;28;20186;-47
2021/08/15 13:18:35;;;;;;;1.85;1.50;;;;;;;;;;5077688;28;20178;-47
2021/08/15 13:21:01;;;;;;;2.22;1.70;;;;;;;;;;5077064;28;20492;-47
2021/08/15 13:23:27;;;;;;;2.83;1.38;;;;;;;;;;5094783;28;20215;-47
2021/08/15 13:25:53;;;;;;;1.98;1.77;;;;;;;;;;5093667;28;20209;-47
2021/08/15 13:28:22;;;;;;;3.08;1.38;;;;;;;;;;5094291;28;20452;-47
2021/08/15 13:30:48;;;;;;;1.80;1.48;;;;;;;;;;5089621;28;20182;-47
2021/08/15 13:33:14;;;;;;;1.95;1.55;;;;;;;;;;5079244;28;20474;-47
2021/08/15 13:35:40;;;;;;;2.22;1.70;;;;;;;;;;5079628;28;20184;-47
2021/08/15 13:38:06;;;;;;;1.92;1.55;;;;;;;;;;5084663;28;20263;-47
2021/08/15 13:40:33;;;;;;;2.58;1.50;;;;;;;;;;5063942;28;20193;-47
2021/08/15 13:43:00;;;;;;;5.30;2.10;;;;;;;;;;5080108;28;20179;-46
2021/08/15 13:45:26;;;;;;;3.55;1.90;;;;;;;;;;5081868;28;20585;-47
2021/08/15 13:47:53;;;;;;;2.17;1.90;;;;;;;;;;5086756;28;20194;-46
2021/08/15 13:50:21;;;;;;;1.70;1.60;;;;;;;;;;5092904;28;20189;-47
2021/08/15 13:52:47;;;;;;;3.35;1.52;;;;;;;;;;5077676;28;20434;-47
2021/08/15 13:55:13;;;;;;;2.08;1.90;;;;;;;;;;5077678;28;20655;-47
2021/08/15 13:57:41;;;;;;;1.88;1.70;;;;;;;;;;5075417;28;20217;-47
2021/08/15 14:00:07;;;;;;;5.05;1.60;;;;;;;;;;5085497;28;20205;-47
2021/08/15 14:02:33;;;;;;;1.73;1.63;;;;;;;;;;5091963;28;20569;-47
2021/08/15 14:04:59;;;;;;;3.65;1.63;;;;;;;;;;5090833;28;20685;-47
2021/08/15 14:07:25;;;;;;;1.95;1.50;;;;;;;;;;5080233;28;20174;-47
2021/08/15 14:09:51;;;;;;;1.85;1.65;;;;;;;;;;5078811;28;20174;-47
2021/08/15 14:12:17;;;;;;;1.60;1.50;;;;;;;;;;5075601;28;20561;-47
2021/08/15 14:14:43;;;;;;;2.38;1.60;;;;;;;;;;5085188;28;20185;-46
2021/08/15 14:17:10;;;;;;;2.70;2.00;;;;;;;;;;5081605;28;20174;-47
2021/08/15 14:19:36;;;;;;;1.65;1.52;;;;;;;;;;5071419;28;20177;-47
2021/08/15 14:22:02;;;;;;;2.40;1.83;;;;;;;;;;5078818;28;20281;-47
2021/08/15 14:24:28;;;;;;;4.05;1.90;;;;;;;;;;5077641;28;20197;-47
2021/08/15 14:26:54;;;;;;;4.30;1.77;;;;;;;;;;5077353;28;20162;-47
2021/08/15 14:29:20;;;;;;;2.40;1.90;;;;;;;;;;5077158;28;20438;-47
2021/08/15 14:31:46;;;;;;;3.38;2.20;;;;;;;;;;5085649;28;20193;-47
2021/08/15 14:34:12;;;;;;;2.75;1.80;;;;;;;;;;5087702;28;20553;-47
2021/08/15 14:36:38;;;;;;;2.75;2.25;;;;;;;;;;5085672;28;20182;-47
2021/08/15 14:39:04;;;;;;;2.47;2.17;;;;;;;;;;5094035;28;20178;-46
2021/08/15 14:41:30;;;;;;;2.38;2.10;;;;;;;;;;5082053;28;20177;-47
2021/08/15 14:43:56;;;;;;;2.28;2.08;;;;;;;;;;5091067;28;20179;-47